sensor_id;sensor_type;location;lat;lon;timestamp;P1;durP1;ratioP1;P2;durP2;ratioP2
73823;SDS011;62154;54.914;73.444;2023-07-22T00:01:21;7.32;;;4.00;;
73823;SDS011;62154;54.914;73.444;2023-07-22T00:06:21;13.13;;;4.97;;
73823;SDS011;62154;54.914;73.444;2023-07-22T00:11:21;9.10;;;3.67;;
73823;SDS011;62154;54.914;73.444;2023-07-22T00:16:22;4.85;;;2.80;;
73823;SDS011;62154;54.914;73.444;2023-07-22T00:21:21;3.97;;;2.85;;
73823;SDS011;62154;54.914;73.444;2023-07-22T00:26:21;5.90;;;3.25;;
73823;SDS011;62154;54.914;73.444;2023-07-22T00:31:21;5.50;;;3.00;;
73823;SDS011;62154;54.914;73.444;2023-07-22T00:36:21;5.78;;;2.92;;
73823;SDS011;62154;54.914;73.444;2023-07-22T00:41:21;6.80;;;3.70;;
73823;SDS011;62154;54.914;73.444;2023-07-22T00:46:22;6.45;;;3.75;;
73823;SDS011;62154;54.914;73.444;2023-07-22T00:51:21;10.25;;;4.57;;
73823;SDS011;62154;54.914;73.444;2023-07-22T00:56:21;8.73;;;4.07;;
73823;SDS011;62154;54.914;73.444;2023-07-22T01:01:22;6.05;;;3.65;;
73823;SDS011;62154;54.914;73.444;2023-07-22T01:06:21;7.10;;;3.28;;
73823;SDS011;62154;54.914;73.444;2023-07-22T01:11:21;5.37;;;2.30;;
73823;SDS011;62154;54.914;73.444;2023-07-22T01:16:26;8.60;;;3.47;;
73823;SDS011;62154;54.914;73.444;2023-07-22T01:21:25;4.47;;;2.47;;
73823;SDS011;62154;54.914;73.444;2023-07-22T01:26:21;4.80;;;3.33;;
73823;SDS011;62154;54.914;73.444;2023-07-22T01:29:06;5.70;;;3.40;;
73823;SDS011;62154;54.914;73.444;2023-07-22T01:31:34;5.30;;;3.17;;
73823;SDS011;62154;54.914;73.444;2023-07-22T01:34:05;4.00;;;2.83;;
73823;SDS011;62154;54.914;73.444;2023-07-22T01:36:32;4.88;;;3.75;;
73823;SDS011;62154;54.914;73.444;2023-07-22T01:39:00;3.95;;;2.85;;
73823;SDS011;62154;54.914;73.444;2023-07-22T01:41:27;7.35;;;4.22;;
73823;SDS011;62154;54.914;73.444;2023-07-22T01:46:22;7.90;;;6.07;;
73823;SDS011;62154;54.914;73.444;2023-07-22T01:51:22;8.27;;;4.77;;
73823;SDS011;62154;54.914;73.444;2023-07-22T01:53:53;7.90;;;4.70;;
73823;SDS011;62154;54.914;73.444;2023-07-22T01:56:23;6.30;;;4.32;;
73823;SDS011;62154;54.914;73.444;2023-07-22T02:01:21;6.80;;;4.60;;
73823;SDS011;62154;54.914;73.444;2023-07-22T02:06:22;10.48;;;4.82;;
73823;SDS011;62154;54.914;73.444;2023-07-22T02:11:21;7.03;;;5.03;;
73823;SDS011;62154;54.914;73.444;2023-07-22T02:16:21;9.50;;;5.00;;
73823;SDS011;62154;54.914;73.444;2023-07-22T02:21:21;9.35;;;5.25;;
73823;SDS011;62154;54.914;73.444;2023-07-22T02:26:20;13.63;;;5.77;;
73823;SDS011;62154;54.914;73.444;2023-07-22T02:28:53;12.70;;;5.80;;
73823;SDS011;62154;54.914;73.444;2023-07-22T02:31:21;16.08;;;6.45;;
73823;SDS011;62154;54.914;73.444;2023-07-22T02:36:21;11.30;;;6.40;;
73823;SDS011;62154;54.914;73.444;2023-07-22T02:41:21;10.10;;;6.28;;
73823;SDS011;62154;54.914;73.444;2023-07-22T02:46:22;7.43;;;5.78;;
73823;SDS011;62154;54.914;73.444;2023-07-22T02:51:21;7.10;;;5.55;;
73823;SDS011;62154;54.914;73.444;2023-07-22T02:56:21;6.50;;;5.23;;
73823;SDS011;62154;54.914;73.444;2023-07-22T02:58:54;6.60;;;5.40;;
73823;SDS011;62154;54.914;73.444;2023-07-22T03:01:21;8.65;;;5.15;;
73823;SDS011;62154;54.914;73.444;2023-07-22T03:06:21;11.95;;;5.18;;
73823;SDS011;62154;54.914;73.444;2023-07-22T03:11:21;6.72;;;5.47;;
73823;SDS011;62154;54.914;73.444;2023-07-22T03:16:23;9.80;;;4.40;;
73823;SDS011;62154;54.914;73.444;2023-07-22T03:21:21;5.38;;;3.63;;
73823;SDS011;62154;54.914;73.444;2023-07-22T03:31:21;4.65;;;3.05;;
73823;SDS011;62154;54.914;73.444;2023-07-22T03:41:21;3.85;;;3.22;;
73823;SDS011;62154;54.914;73.444;2023-07-22T03:46:22;5.90;;;3.10;;
73823;SDS011;62154;54.914;73.444;2023-07-22T03:51:21;7.93;;;4.47;;
73823;SDS011;62154;54.914;73.444;2023-07-22T03:56:21;3.88;;;2.85;;
73823;SDS011;62154;54.914;73.444;2023-07-22T04:01:21;7.80;;;2.80;;
73823;SDS011;62154;54.914;73.444;2023-07-22T04:06:20;5.35;;;3.22;;
73823;SDS011;62154;54.914;73.444;2023-07-22T04:11:23;5.38;;;2.78;;
73823;SDS011;62154;54.914;73.444;2023-07-22T04:16:22;7.78;;;3.20;;
73823;SDS011;62154;54.914;73.444;2023-07-22T04:21:21;6.60;;;3.42;;
73823;SDS011;62154;54.914;73.444;2023-07-22T04:31:21;13.15;;;3.45;;
73823;SDS011;62154;54.914;73.444;2023-07-22T04:36:21;3.85;;;2.85;;
73823;SDS011;62154;54.914;73.444;2023-07-22T04:41:21;10.73;;;2.90;;
73823;SDS011;62154;54.914;73.444;2023-07-22T04:46:22;6.97;;;2.83;;
73823;SDS011;62154;54.914;73.444;2023-07-22T04:51:28;7.35;;;3.20;;
73823;SDS011;62154;54.914;73.444;2023-07-22T04:53:55;0.70;;;0.70;;
73823;SDS011;62154;54.914;73.444;2023-07-22T04:56:23;7.35;;;3.30;;
73823;SDS011;62154;54.914;73.444;2023-07-22T05:01:21;4.85;;;3.67;;
73823;SDS011;62154;54.914;73.444;2023-07-22T05:06:21;7.43;;;3.38;;
73823;SDS011;62154;54.914;73.444;2023-07-22T05:11:21;6.55;;;3.70;;
73823;SDS011;62154;54.914;73.444;2023-07-22T05:16:22;12.68;;;4.47;;
73823;SDS011;62154;54.914;73.444;2023-07-22T05:21:21;7.32;;;3.60;;
73823;SDS011;62154;54.914;73.444;2023-07-22T05:31:21;12.70;;;4.25;;
73823;SDS011;62154;54.914;73.444;2023-07-22T05:36:21;12.48;;;3.70;;
73823;SDS011;62154;54.914;73.444;2023-07-22T05:38:55;7.00;;;2.50;;
73823;SDS011;62154;54.914;73.444;2023-07-22T05:41:25;11.73;;;3.60;;
73823;SDS011;62154;54.914;73.444;2023-07-22T05:46:23;17.47;;;4.73;;
73823;SDS011;62154;54.914;73.444;2023-07-22T05:51:21;13.20;;;3.70;;
73823;SDS011;62154;54.914;73.444;2023-07-22T06:01:20;7.90;;;3.45;;
73823;SDS011;62154;54.914;73.444;2023-07-22T06:06:20;8.00;;;3.33;;
73823;SDS011;62154;54.914;73.444;2023-07-22T06:11:21;8.25;;;3.10;;
73823;SDS011;62154;54.914;73.444;2023-07-22T06:16:22;10.15;;;3.83;;
73823;SDS011;62154;54.914;73.444;2023-07-22T06:21:21;6.35;;;3.30;;
73823;SDS011;62154;54.914;73.444;2023-07-22T06:26:22;4.93;;;2.83;;
73823;SDS011;62154;54.914;73.444;2023-07-22T06:31:21;8.93;;;3.00;;
73823;SDS011;62154;54.914;73.444;2023-07-22T06:36:21;6.22;;;2.60;;
73823;SDS011;62154;54.914;73.444;2023-07-22T06:41:21;9.27;;;2.83;;
73823;SDS011;62154;54.914;73.444;2023-07-22T06:46:22;12.57;;;3.35;;
73823;SDS011;62154;54.914;73.444;2023-07-22T06:51:20;11.23;;;2.70;;
73823;SDS011;62154;54.914;73.444;2023-07-22T06:56:21;8.20;;;3.10;;
73823;SDS011;62154;54.914;73.444;2023-07-22T07:01:20;4.07;;;2.28;;
73823;SDS011;62154;54.914;73.444;2023-07-22T07:06:21;3.50;;;1.67;;
73823;SDS011;62154;54.914;73.444;2023-07-22T07:11:22;4.53;;;2.03;;
73823;SDS011;62154;54.914;73.444;2023-07-22T07:16:23;8.10;;;2.05;;
73823;SDS011;62154;54.914;73.444;2023-07-22T07:21:24;5.53;;;2.00;;
73823;SDS011;62154;54.914;73.444;2023-07-22T07:26:21;4.10;;;1.90;;
73823;SDS011;62154;54.914;73.444;2023-07-22T07:31:20;8.40;;;2.08;;
73823;SDS011;62154;54.914;73.444;2023-07-22T07:36:20;9.45;;;2.10;;
73823;SDS011;62154;54.914;73.444;2023-07-22T07:41:21;6.38;;;2.30;;
73823;SDS011;62154;54.914;73.444;2023-07-22T07:46:23;8.13;;;2.30;;
73823;SDS011;62154;54.914;73.444;2023-07-22T07:51:37;11.23;;;3.10;;
73823;SDS011;62154;54.914;73.444;2023-07-22T07:54:24;5.40;;;2.10;;
73823;SDS011;62154;54.914;73.444;2023-07-22T07:56:52;8.73;;;2.00;;
73823;SDS011;62154;54.914;73.444;2023-07-22T07:59:19;5.03;;;2.13;;
73823;SDS011;62154;54.914;73.444;2023-07-22T08:01:47;7.82;;;2.28;;
73823;SDS011;62154;54.914;73.444;2023-07-22T08:04:14;9.02;;;1.80;;
73823;SDS011;62154;54.914;73.444;2023-07-22T08:06:44;15.05;;;2.20;;
73823;SDS011;62154;54.914;73.444;2023-07-22T08:09:11;10.97;;;2.10;;
73823;SDS011;62154;54.914;73.444;2023-07-22T08:11:46;18.15;;;2.30;;
73823;SDS011;62154;54.914;73.444;2023-07-22T08:14:15;5.85;;;1.77;;
73823;SDS011;62154;54.914;73.444;2023-07-22T08:16:44;17.65;;;2.15;;
73823;SDS011;62154;54.914;73.444;2023-07-22T08:19:11;11.57;;;2.97;;
73823;SDS011;62154;54.914;73.444;2023-07-22T08:21:38;8.07;;;2.22;;
73823;SDS011;62154;54.914;73.444;2023-07-22T08:24:06;17.63;;;2.00;;
73823;SDS011;62154;54.914;73.444;2023-07-22T08:26:34;6.55;;;1.90;;
73823;SDS011;62154;54.914;73.444;2023-07-22T08:29:01;8.45;;;1.42;;
73823;SDS011;62154;54.914;73.444;2023-07-22T08:31:29;7.45;;;2.05;;
73823;SDS011;62154;54.914;73.444;2023-07-22T08:33:56;0.40;;;0.40;;
73823;SDS011;62154;54.914;73.444;2023-07-22T08:36:24;16.13;;;2.92;;
73823;SDS011;62154;54.914;73.444;2023-07-22T08:41:21;5.50;;;1.75;;
73823;SDS011;62154;54.914;73.444;2023-07-22T08:46:22;3.75;;;1.38;;
73823;SDS011;62154;54.914;73.444;2023-07-22T08:48:55;0.00;;;0.00;;
73823;SDS011;62154;54.914;73.444;2023-07-22T08:51:33;7.63;;;1.40;;
73823;SDS011;62154;54.914;73.444;2023-07-22T08:54:03;5.28;;;1.55;;
73823;SDS011;62154;54.914;73.444;2023-07-22T08:56:31;4.72;;;1.40;;
73823;SDS011;62154;54.914;73.444;2023-07-22T08:59:03;8.52;;;1.52;;
73823;SDS011;62154;54.914;73.444;2023-07-22T09:01:33;5.40;;;1.52;;
73823;SDS011;62154;54.914;73.444;2023-07-22T09:04:11;4.70;;;1.20;;
73823;SDS011;62154;54.914;73.444;2023-07-22T09:06:38;6.65;;;1.80;;
73823;SDS011;62154;54.914;73.444;2023-07-22T09:09:08;2.55;;;1.25;;
73823;SDS011;62154;54.914;73.444;2023-07-22T09:11:38;2.63;;;1.15;;
73823;SDS011;62154;54.914;73.444;2023-07-22T09:14:06;3.00;;;1.30;;
73823;SDS011;62154;54.914;73.444;2023-07-22T09:16:33;5.22;;;0.95;;
73823;SDS011;62154;54.914;73.444;2023-07-22T09:19:04;2.67;;;1.25;;
73823;SDS011;62154;54.914;73.444;2023-07-22T09:21:32;13.15;;;1.80;;
73823;SDS011;62154;54.914;73.444;2023-07-22T09:24:02;6.00;;;1.05;;
73823;SDS011;62154;54.914;73.444;2023-07-22T09:26:48;4.05;;;1.48;;
73823;SDS011;62154;54.914;73.444;2023-07-22T09:29:16;2.80;;;1.30;;
73823;SDS011;62154;54.914;73.444;2023-07-22T09:31:54;4.38;;;1.58;;
73823;SDS011;62154;54.914;73.444;2023-07-22T09:34:21;3.30;;;1.40;;
73823;SDS011;62154;54.914;73.444;2023-07-22T09:36:53;7.97;;;1.70;;
73823;SDS011;62154;54.914;73.444;2023-07-22T09:39:22;12.63;;;5.70;;
73823;SDS011;62154;54.914;73.444;2023-07-22T09:41:51;7.60;;;3.42;;
73823;SDS011;62154;54.914;73.444;2023-07-22T09:44:22;6.28;;;1.90;;
73823;SDS011;62154;54.914;73.444;2023-07-22T09:46:50;8.13;;;1.70;;
73823;SDS011;62154;54.914;73.444;2023-07-22T09:49:18;7.05;;;1.48;;
73823;SDS011;62154;54.914;73.444;2023-07-22T09:51:45;5.43;;;1.45;;
73823;SDS011;62154;54.914;73.444;2023-07-22T09:54:13;7.15;;;1.02;;
73823;SDS011;62154;54.914;73.444;2023-07-22T09:56:48;6.75;;;2.17;;
73823;SDS011;62154;54.914;73.444;2023-07-22T09:59:17;4.15;;;1.35;;
73823;SDS011;62154;54.914;73.444;2023-07-22T10:01:47;3.08;;;1.35;;
73823;SDS011;62154;54.914;73.444;2023-07-22T10:04:19;6.93;;;1.98;;
73823;SDS011;62154;54.914;73.444;2023-07-22T10:06:50;7.55;;;2.05;;
73823;SDS011;62154;54.914;73.444;2023-07-22T10:09:18;4.53;;;1.33;;
73823;SDS011;62154;54.914;73.444;2023-07-22T10:11:49;9.30;;;3.45;;
73823;SDS011;62154;54.914;73.444;2023-07-22T10:14:17;12.77;;;3.95;;
73823;SDS011;62154;54.914;73.444;2023-07-22T10:16:45;10.27;;;3.57;;
73823;SDS011;62154;54.914;73.444;2023-07-22T10:19:12;3.75;;;1.27;;
73823;SDS011;62154;54.914;73.444;2023-07-22T10:21:41;3.88;;;2.20;;
73823;SDS011;62154;54.914;73.444;2023-07-22T10:24:09;7.38;;;1.73;;
73823;SDS011;62154;54.914;73.444;2023-07-22T10:26:37;8.15;;;2.20;;
73823;SDS011;62154;54.914;73.444;2023-07-22T10:29:07;15.13;;;3.33;;
73823;SDS011;62154;54.914;73.444;2023-07-22T10:31:35;18.33;;;2.78;;
73823;SDS011;62154;54.914;73.444;2023-07-22T10:34:03;2.03;;;0.95;;
73823;SDS011;62154;54.914;73.444;2023-07-22T10:36:30;4.28;;;1.50;;
73823;SDS011;62154;54.914;73.444;2023-07-22T10:39:01;4.65;;;2.70;;
73823;SDS011;62154;54.914;73.444;2023-07-22T10:41:28;11.32;;;3.90;;
73823;SDS011;62154;54.914;73.444;2023-07-22T10:43:57;0.50;;;0.50;;
73823;SDS011;62154;54.914;73.444;2023-07-22T10:46:33;3.60;;;1.45;;
73823;SDS011;62154;54.914;73.444;2023-07-22T10:49:12;2.85;;;1.42;;
73823;SDS011;62154;54.914;73.444;2023-07-22T10:51:49;3.33;;;1.10;;
73823;SDS011;62154;54.914;73.444;2023-07-22T10:54:31;7.20;;;1.48;;
73823;SDS011;62154;54.914;73.444;2023-07-22T10:57:43;9.90;;;1.80;;
73823;SDS011;62154;54.914;73.444;2023-07-22T10:59:52;13.25;;;3.63;;
73823;SDS011;62154;54.914;73.444;2023-07-22T11:02:27;14.57;;;3.15;;
73823;SDS011;62154;54.914;73.444;2023-07-22T11:04:57;8.05;;;4.00;;
73823;SDS011;62154;54.914;73.444;2023-07-22T11:07:44;13.63;;;2.20;;
73823;SDS011;62154;54.914;73.444;2023-07-22T11:10:14;10.75;;;4.43;;
73823;SDS011;62154;54.914;73.444;2023-07-22T11:12:45;12.10;;;4.35;;
73823;SDS011;62154;54.914;73.444;2023-07-22T11:15:15;4.78;;;2.55;;
73823;SDS011;62154;54.914;73.444;2023-07-22T11:17:44;5.95;;;2.47;;
73823;SDS011;62154;54.914;73.444;2023-07-22T11:20:12;4.53;;;2.05;;
73823;SDS011;62154;54.914;73.444;2023-07-22T11:22:40;10.77;;;2.30;;
73823;SDS011;62154;54.914;73.444;2023-07-22T11:25:08;9.57;;;4.20;;
73823;SDS011;62154;54.914;73.444;2023-07-22T11:27:36;7.15;;;2.75;;
73823;SDS011;62154;54.914;73.444;2023-07-22T11:30:04;3.97;;;1.60;;
73823;SDS011;62154;54.914;73.444;2023-07-22T11:32:33;5.38;;;1.70;;
73823;SDS011;62154;54.914;73.444;2023-07-22T11:35:00;8.77;;;1.95;;
73823;SDS011;62154;54.914;73.444;2023-07-22T11:37:31;3.28;;;1.13;;
73823;SDS011;62154;54.914;73.444;2023-07-22T11:40:00;8.13;;;1.50;;
73823;SDS011;62154;54.914;73.444;2023-07-22T11:42:34;11.15;;;2.40;;
73823;SDS011;62154;54.914;73.444;2023-07-22T11:45:02;11.60;;;4.30;;
73823;SDS011;62154;54.914;73.444;2023-07-22T11:47:32;11.82;;;3.22;;
73823;SDS011;62154;54.914;73.444;2023-07-22T11:50:01;7.23;;;2.53;;
73823;SDS011;62154;54.914;73.444;2023-07-22T11:52:33;4.75;;;1.67;;
73823;SDS011;62154;54.914;73.444;2023-07-22T11:55:02;8.13;;;3.97;;
73823;SDS011;62154;54.914;73.444;2023-07-22T11:57:31;1.33;;;1.20;;
73823;SDS011;62154;54.914;73.444;2023-07-22T11:59:58;7.88;;;2.28;;
73823;SDS011;62154;54.914;73.444;2023-07-22T12:02:27;7.97;;;1.40;;
73823;SDS011;62154;54.914;73.444;2023-07-22T12:05:00;8.77;;;1.23;;
73823;SDS011;62154;54.914;73.444;2023-07-22T12:07:35;6.05;;;1.85;;
73823;SDS011;62154;54.914;73.444;2023-07-22T12:10:05;9.85;;;3.20;;
73823;SDS011;62154;54.914;73.444;2023-07-22T12:15:10;8.20;;;2.47;;
73823;SDS011;62154;54.914;73.444;2023-07-22T12:20:13;4.68;;;1.90;;
73823;SDS011;62154;54.914;73.444;2023-07-22T12:22:41;6.82;;;2.13;;
73823;SDS011;62154;54.914;73.444;2023-07-22T12:25:12;7.43;;;1.95;;
73823;SDS011;62154;54.914;73.444;2023-07-22T12:27:40;13.35;;;2.60;;
73823;SDS011;62154;54.914;73.444;2023-07-22T12:30:07;7.32;;;2.03;;
73823;SDS011;62154;54.914;73.444;2023-07-22T12:32:35;6.22;;;2.40;;
73823;SDS011;62154;54.914;73.444;2023-07-22T12:35:02;6.63;;;2.73;;
73823;SDS011;62154;54.914;73.444;2023-07-22T12:37:31;10.05;;;2.53;;
73823;SDS011;62154;54.914;73.444;2023-07-22T12:39:59;8.73;;;2.05;;
73823;SDS011;62154;54.914;73.444;2023-07-22T12:42:29;7.75;;;2.10;;
73823;SDS011;62154;54.914;73.444;2023-07-22T12:44:57;13.35;;;2.22;;
73823;SDS011;62154;54.914;73.444;2023-07-22T12:47:24;5.82;;;1.98;;
73823;SDS011;62154;54.914;73.444;2023-07-22T12:49:52;11.00;;;2.45;;
73823;SDS011;62154;54.914;73.444;2023-07-22T12:52:19;9.65;;;3.25;;
73823;SDS011;62154;54.914;73.444;2023-07-22T12:54:47;9.40;;;2.45;;
73823;SDS011;62154;54.914;73.444;2023-07-22T12:57:14;5.07;;;1.70;;
73823;SDS011;62154;54.914;73.444;2023-07-22T12:59:42;10.57;;;2.57;;
73823;SDS011;62154;54.914;73.444;2023-07-22T13:02:09;1.75;;;1.42;;
73823;SDS011;62154;54.914;73.444;2023-07-22T13:04:37;2.47;;;1.75;;
73823;SDS011;62154;54.914;73.444;2023-07-22T13:07:04;6.13;;;1.50;;
73823;SDS011;62154;54.914;73.444;2023-07-22T13:09:32;5.18;;;1.30;;
73823;SDS011;62154;54.914;73.444;2023-07-22T13:12:02;5.88;;;2.00;;
73823;SDS011;62154;54.914;73.444;2023-07-22T13:14:30;5.93;;;1.88;;
73823;SDS011;62154;54.914;73.444;2023-07-22T13:16:58;11.45;;;4.25;;
73823;SDS011;62154;54.914;73.444;2023-07-22T13:19:26;8.52;;;2.40;;
73823;SDS011;62154;54.914;73.444;2023-07-22T13:21:54;8.88;;;2.75;;
73823;SDS011;62154;54.914;73.444;2023-07-22T13:24:21;9.95;;;2.10;;
73823;SDS011;62154;54.914;73.444;2023-07-22T13:26:49;6.60;;;1.80;;
73823;SDS011;62154;54.914;73.444;2023-07-22T13:29:16;3.90;;;1.50;;
73823;SDS011;62154;54.914;73.444;2023-07-22T13:31:44;14.45;;;2.00;;
73823;SDS011;62154;54.914;73.444;2023-07-22T13:34:11;3.43;;;1.77;;
73823;SDS011;62154;54.914;73.444;2023-07-22T13:36:39;5.43;;;1.90;;
73823;SDS011;62154;54.914;73.444;2023-07-22T13:41:35;3.67;;;2.22;;
73823;SDS011;62154;54.914;73.444;2023-07-22T13:44:03;3.03;;;2.10;;
73823;SDS011;62154;54.914;73.444;2023-07-22T13:46:31;12.63;;;3.63;;
73823;SDS011;62154;54.914;73.444;2023-07-22T13:48:59;5.23;;;2.63;;
73823;SDS011;62154;54.914;73.444;2023-07-22T13:51:27;5.88;;;1.35;;
73823;SDS011;62154;54.914;73.444;2023-07-22T13:53:56;3.15;;;2.05;;
73823;SDS011;62154;54.914;73.444;2023-07-22T13:56:25;9.48;;;2.45;;
73823;SDS011;62154;54.914;73.444;2023-07-22T14:01:22;13.77;;;2.90;;
73823;SDS011;62154;54.914;73.444;2023-07-22T14:11:20;11.48;;;3.70;;
73823;SDS011;62154;54.914;73.444;2023-07-22T14:16:24;10.85;;;3.70;;
73823;SDS011;62154;54.914;73.444;2023-07-22T14:21:21;13.48;;;4.85;;
73823;SDS011;62154;54.914;73.444;2023-07-22T14:26:21;12.07;;;3.63;;
73823;SDS011;62154;54.914;73.444;2023-07-22T14:36:23;15.13;;;4.55;;
73823;SDS011;62154;54.914;73.444;2023-07-22T14:41:22;18.08;;;5.18;;
73823;SDS011;62154;54.914;73.444;2023-07-22T14:46:23;24.38;;;6.65;;
73823;SDS011;62154;54.914;73.444;2023-07-22T14:51:21;28.30;;;12.57;;
73823;SDS011;62154;54.914;73.444;2023-07-22T14:56:23;21.50;;;7.65;;
73823;SDS011;62154;54.914;73.444;2023-07-22T15:01:23;24.50;;;10.32;;
73823;SDS011;62154;54.914;73.444;2023-07-22T15:04:37;29.40;;;10.70;;
73823;SDS011;62154;54.914;73.444;2023-07-22T15:07:05;21.55;;;9.52;;
73823;SDS011;62154;54.914;73.444;2023-07-22T15:09:36;16.67;;;6.93;;
73823;SDS011;62154;54.914;73.444;2023-07-22T15:14:35;22.55;;;8.77;;
73823;SDS011;62154;54.914;73.444;2023-07-22T15:19:34;29.33;;;7.35;;
73823;SDS011;62154;54.914;73.444;2023-07-22T15:24:35;33.88;;;12.23;;
73823;SDS011;62154;54.914;73.444;2023-07-22T15:29:33;31.10;;;10.90;;
73823;SDS011;62154;54.914;73.444;2023-07-22T15:34:33;31.05;;;12.63;;
73823;SDS011;62154;54.914;73.444;2023-07-22T15:39:32;51.85;;;24.17;;
73823;SDS011;62154;54.914;73.444;2023-07-22T15:44:37;49.20;;;26.05;;
73823;SDS011;62154;54.914;73.444;2023-07-22T15:49:32;40.17;;;19.08;;
73823;SDS011;62154;54.914;73.444;2023-07-22T15:54:32;48.67;;;22.02;;
73823;SDS011;62154;54.914;73.444;2023-07-22T15:59:32;38.10;;;17.15;;
73823;SDS011;62154;54.914;73.444;2023-07-22T16:04:32;45.60;;;17.83;;
73823;SDS011;62154;54.914;73.444;2023-07-22T16:09:34;42.13;;;17.30;;
73823;SDS011;62154;54.914;73.444;2023-07-22T16:14:34;38.50;;;16.98;;
73823;SDS011;62154;54.914;73.444;2023-07-22T16:19:32;43.17;;;19.80;;
73823;SDS011;62154;54.914;73.444;2023-07-22T16:24:34;51.72;;;25.13;;
73823;SDS011;62154;54.914;73.444;2023-07-22T16:29:35;58.40;;;25.58;;
73823;SDS011;62154;54.914;73.444;2023-07-22T16:34:34;55.30;;;28.33;;
73823;SDS011;62154;54.914;73.444;2023-07-22T16:39:32;50.05;;;29.45;;
73823;SDS011;62154;54.914;73.444;2023-07-22T16:44:34;57.50;;;32.13;;
73823;SDS011;62154;54.914;73.444;2023-07-22T16:49:32;41.72;;;21.60;;
73823;SDS011;62154;54.914;73.444;2023-07-22T16:54:32;43.03;;;18.27;;
73823;SDS011;62154;54.914;73.444;2023-07-22T17:04:32;34.15;;;15.90;;
73823;SDS011;62154;54.914;73.444;2023-07-22T17:09:35;36.85;;;14.70;;
73823;SDS011;62154;54.914;73.444;2023-07-22T17:14:34;35.17;;;13.57;;
73823;SDS011;62154;54.914;73.444;2023-07-22T17:19:33;34.97;;;13.30;;
73823;SDS011;62154;54.914;73.444;2023-07-22T17:24:33;40.60;;;13.55;;
73823;SDS011;62154;54.914;73.444;2023-07-22T17:29:33;26.00;;;11.75;;
73823;SDS011;62154;54.914;73.444;2023-07-22T17:34:32;28.00;;;11.82;;
73823;SDS011;62154;54.914;73.444;2023-07-22T17:39:44;32.28;;;12.15;;
73823;SDS011;62154;54.914;73.444;2023-07-22T17:42:12;21.57;;;9.77;;
73823;SDS011;62154;54.914;73.444;2023-07-22T17:44:39;37.05;;;13.07;;
73823;SDS011;62154;54.914;73.444;2023-07-22T17:47:07;5.80;;;4.70;;
73823;SDS011;62154;54.914;73.444;2023-07-22T17:49:34;36.22;;;12.05;;
73823;SDS011;62154;54.914;73.444;2023-07-22T17:54:33;31.77;;;11.90;;
73823;SDS011;62154;54.914;73.444;2023-07-22T17:59:33;24.75;;;11.30;;
73823;SDS011;62154;54.914;73.444;2023-07-22T18:04:33;28.20;;;10.27;;
73823;SDS011;62154;54.914;73.444;2023-07-22T18:09:32;31.60;;;10.93;;
73823;SDS011;62154;54.914;73.444;2023-07-22T18:14:38;21.33;;;8.88;;
73823;SDS011;62154;54.914;73.444;2023-07-22T18:17:07;17.10;;;3.10;;
73823;SDS011;62154;54.914;73.444;2023-07-22T18:19:34;28.20;;;10.02;;
73823;SDS011;62154;54.914;73.444;2023-07-22T18:24:33;44.25;;;12.00;;
73823;SDS011;62154;54.914;73.444;2023-07-22T18:34:32;30.02;;;9.10;;
73823;SDS011;62154;54.914;73.444;2023-07-22T18:39:35;27.95;;;9.60;;
73823;SDS011;62154;54.914;73.444;2023-07-22T18:44:42;20.30;;;8.15;;
73823;SDS011;62154;54.914;73.444;2023-07-22T18:47:09;18.60;;;8.50;;
73823;SDS011;62154;54.914;73.444;2023-07-22T18:49:36;26.00;;;8.57;;
73823;SDS011;62154;54.914;73.444;2023-07-22T18:54:33;29.95;;;8.15;;
73823;SDS011;62154;54.914;73.444;2023-07-22T18:59:32;21.13;;;8.02;;
73823;SDS011;62154;54.914;73.444;2023-07-22T19:04:33;22.23;;;8.88;;
73823;SDS011;62154;54.914;73.444;2023-07-22T19:09:32;30.00;;;8.30;;
73823;SDS011;62154;54.914;73.444;2023-07-22T19:14:33;19.70;;;8.70;;
73823;SDS011;62154;54.914;73.444;2023-07-22T19:19:33;23.77;;;7.63;;
73823;SDS011;62154;54.914;73.444;2023-07-22T19:24:34;20.50;;;7.60;;
73823;SDS011;62154;54.914;73.444;2023-07-22T19:29:32;22.25;;;5.85;;
73823;SDS011;62154;54.914;73.444;2023-07-22T19:34:33;16.42;;;5.57;;
73823;SDS011;62154;54.914;73.444;2023-07-22T19:39:33;20.77;;;6.28;;
73823;SDS011;62154;54.914;73.444;2023-07-22T19:44:33;18.55;;;6.97;;
73823;SDS011;62154;54.914;73.444;2023-07-22T19:49:32;31.52;;;6.47;;
73823;SDS011;62154;54.914;73.444;2023-07-22T19:54:32;14.10;;;4.72;;
73823;SDS011;62154;54.914;73.444;2023-07-22T19:59:32;13.30;;;4.50;;
73823;SDS011;62154;54.914;73.444;2023-07-22T20:09:32;13.45;;;4.22;;
73823;SDS011;62154;54.914;73.444;2023-07-22T20:14:33;9.63;;;3.70;;
73823;SDS011;62154;54.914;73.444;2023-07-22T20:19:32;9.73;;;3.97;;
73823;SDS011;62154;54.914;73.444;2023-07-22T20:24:35;6.05;;;3.40;;
73823;SDS011;62154;54.914;73.444;2023-07-22T20:29:33;6.68;;;3.38;;
73823;SDS011;62154;54.914;73.444;2023-07-22T20:34:32;12.68;;;3.80;;
73823;SDS011;62154;54.914;73.444;2023-07-22T20:39:32;12.00;;;3.53;;
73823;SDS011;62154;54.914;73.444;2023-07-22T20:44:33;9.57;;;4.22;;
73823;SDS011;62154;54.914;73.444;2023-07-22T20:49:32;19.88;;;5.82;;
73823;SDS011;62154;54.914;73.444;2023-07-22T20:54:38;15.98;;;5.15;;
73823;SDS011;62154;54.914;73.444;2023-07-22T20:59:33;17.67;;;4.18;;
73823;SDS011;62154;54.914;73.444;2023-07-22T21:04:32;12.45;;;4.10;;
73823;SDS011;62154;54.914;73.444;2023-07-22T21:09:32;13.80;;;3.75;;
73823;SDS011;62154;54.914;73.444;2023-07-22T21:14:34;15.63;;;3.67;;
73823;SDS011;62154;54.914;73.444;2023-07-22T21:19:32;13.15;;;4.18;;
73823;SDS011;62154;54.914;73.444;2023-07-22T21:24:33;12.63;;;4.00;;
73823;SDS011;62154;54.914;73.444;2023-07-22T21:29:32;19.80;;;4.47;;
73823;SDS011;62154;54.914;73.444;2023-07-22T21:34:32;14.65;;;4.05;;
73823;SDS011;62154;54.914;73.444;2023-07-22T21:39:32;7.55;;;3.17;;
73823;SDS011;62154;54.914;73.444;2023-07-22T21:44:33;9.70;;;3.17;;
73823;SDS011;62154;54.914;73.444;2023-07-22T21:49:32;9.13;;;2.92;;
73823;SDS011;62154;54.914;73.444;2023-07-22T21:54:32;8.50;;;2.60;;
73823;SDS011;62154;54.914;73.444;2023-07-22T21:59:32;5.40;;;3.00;;
73823;SDS011;62154;54.914;73.444;2023-07-22T22:04:32;5.25;;;3.00;;
73823;SDS011;62154;54.914;73.444;2023-07-22T22:09:32;6.07;;;2.97;;
73823;SDS011;62154;54.914;73.444;2023-07-22T22:14:33;11.57;;;2.97;;
73823;SDS011;62154;54.914;73.444;2023-07-22T22:19:32;18.95;;;3.38;;
73823;SDS011;62154;54.914;73.444;2023-07-22T22:24:32;13.68;;;3.50;;
73823;SDS011;62154;54.914;73.444;2023-07-22T22:29:32;19.00;;;5.03;;
73823;SDS011;62154;54.914;73.444;2023-07-22T22:32:05;18.40;;;4.90;;
73823;SDS011;62154;54.914;73.444;2023-07-22T22:34:33;16.10;;;4.30;;
73823;SDS011;62154;54.914;73.444;2023-07-22T22:39:32;21.70;;;3.75;;
73823;SDS011;62154;54.914;73.444;2023-07-22T22:44:36;25.77;;;4.45;;
73823;SDS011;62154;54.914;73.444;2023-07-22T22:49:32;13.43;;;3.17;;
73823;SDS011;62154;54.914;73.444;2023-07-22T22:54:32;12.05;;;3.58;;
73823;SDS011;62154;54.914;73.444;2023-07-22T22:59:32;15.30;;;3.45;;
73823;SDS011;62154;54.914;73.444;2023-07-22T23:04:35;14.55;;;3.42;;
73823;SDS011;62154;54.914;73.444;2023-07-22T23:09:32;11.73;;;3.42;;
73823;SDS011;62154;54.914;73.444;2023-07-22T23:14:33;11.57;;;3.55;;
73823;SDS011;62154;54.914;73.444;2023-07-22T23:19:33;25.75;;;3.97;;
73823;SDS011;62154;54.914;73.444;2023-07-22T23:24:32;11.27;;;3.85;;